sensor_id;sensor_type;location;lat;lon;timestamp;P1;durP1;ratioP1;P2;durP2;ratioP2
35304;SDS011;26433;48.034;-1.764;2022-08-19T00:04:48;0.93;;;0.43;;
35304;SDS011;26433;48.034;-1.764;2022-08-19T00:09:56;0.30;;;0.22;;
35304;SDS011;26433;48.034;-1.764;2022-08-19T00:14:59;0.47;;;0.40;;
35304;SDS011;26433;48.034;-1.764;2022-08-19T00:20:03;0.73;;;0.30;;
35304;SDS011;26433;48.034;-1.764;2022-08-19T00:25:09;0.30;;;0.30;;
35304;SDS011;26433;48.034;-1.764;2022-08-19T00:30:13;0.50;;;0.40;;
35304;SDS011;26433;48.034;-1.764;2022-08-19T00:35:17;1.90;;;0.40;;
35304;SDS011;26433;48.034;-1.764;2022-08-19T00:40:22;0.63;;;0.30;;
35304;SDS011;26433;48.034;-1.764;2022-08-19T00:45:27;0.30;;;0.13;;
35304;SDS011;26433;48.034;-1.764;2022-08-19T00:50:38;0.65;;;0.40;;
35304;SDS011;26433;48.034;-1.764;2022-08-19T00:55:54;0.40;;;0.22;;
35304;SDS011;26433;48.034;-1.764;2022-08-19T01:01:00;4.97;;;0.37;;
35304;SDS011;26433;48.034;-1.764;2022-08-19T01:06:06;4.50;;;0.45;;
35304;SDS011;26433;48.034;-1.764;2022-08-19T01:11:11;2.12;;;0.77;;
35304;SDS011;26433;48.034;-1.764;2022-08-19T01:16:15;0.40;;;0.40;;
35304;SDS011;26433;48.034;-1.764;2022-08-19T01:21:23;0.40;;;0.40;;
35304;SDS011;26433;48.034;-1.764;2022-08-19T01:26:37;0.52;;;0.43;;
35304;SDS011;26433;48.034;-1.764;2022-08-19T01:31:44;0.75;;;0.62;;
35304;SDS011;26433;48.034;-1.764;2022-08-19T01:36:47;2.60;;;0.40;;
35304;SDS011;26433;48.034;-1.764;2022-08-19T01:41:53;1.85;;;0.60;;
35304;SDS011;26433;48.034;-1.764;2022-08-19T01:46:56;2.78;;;0.57;;
35304;SDS011;26433;48.034;-1.764;2022-08-19T01:52:00;0.60;;;0.50;;
35304;SDS011;26433;48.034;-1.764;2022-08-19T01:57:08;0.50;;;0.40;;
35304;SDS011;26433;48.034;-1.764;2022-08-19T02:02:14;0.30;;;0.30;;
35304;SDS011;26433;48.034;-1.764;2022-08-19T02:07:18;0.80;;;0.53;;
35304;SDS011;26433;48.034;-1.764;2022-08-19T02:17:28;0.50;;;0.32;;
35304;SDS011;26433;48.034;-1.764;2022-08-19T02:22:32;1.30;;;0.82;;
35304;SDS011;26433;48.034;-1.764;2022-08-19T02:27:38;4.03;;;0.70;;
35304;SDS011;26433;48.034;-1.764;2022-08-19T02:32:43;2.83;;;0.90;;
35304;SDS011;26433;48.034;-1.764;2022-08-19T02:37:47;1.10;;;0.30;;
35304;SDS011;26433;48.034;-1.764;2022-08-19T02:43:09;3.78;;;0.77;;
35304;SDS011;26433;48.034;-1.764;2022-08-19T02:48:13;0.40;;;0.37;;
35304;SDS011;26433;48.034;-1.764;2022-08-19T02:53:22;1.12;;;0.30;;
35304;SDS011;26433;48.034;-1.764;2022-08-19T02:58:30;13.30;;;0.50;;
35304;SDS011;26433;48.034;-1.764;2022-08-19T03:03:34;0.50;;;0.30;;
35304;SDS011;26433;48.034;-1.764;2022-08-19T03:08:38;0.83;;;0.40;;
35304;SDS011;26433;48.034;-1.764;2022-08-19T03:13:45;0.62;;;0.32;;
35304;SDS011;26433;48.034;-1.764;2022-08-19T03:18:50;0.40;;;0.40;;
35304;SDS011;26433;48.034;-1.764;2022-08-19T03:23:56;0.37;;;0.35;;
35304;SDS011;26433;48.034;-1.764;2022-08-19T03:29:02;2.12;;;0.73;;
35304;SDS011;26433;48.034;-1.764;2022-08-19T03:34:06;4.15;;;0.50;;
35304;SDS011;26433;48.034;-1.764;2022-08-19T03:44:18;0.85;;;0.40;;
35304;SDS011;26433;48.034;-1.764;2022-08-19T03:49:23;0.93;;;0.68;;
35304;SDS011;26433;48.034;-1.764;2022-08-19T03:54:30;0.75;;;0.55;;
35304;SDS011;26433;48.034;-1.764;2022-08-19T03:59:36;0.70;;;0.40;;
35304;SDS011;26433;48.034;-1.764;2022-08-19T04:04:41;0.82;;;0.50;;
35304;SDS011;26433;48.034;-1.764;2022-08-19T04:09:46;0.37;;;0.30;;
35304;SDS011;26433;48.034;-1.764;2022-08-19T04:14:51;0.77;;;0.57;;
35304;SDS011;26433;48.034;-1.764;2022-08-19T04:19:54;0.55;;;0.50;;
35304;SDS011;26433;48.034;-1.764;2022-08-19T04:24:58;3.53;;;0.50;;
35304;SDS011;26433;48.034;-1.764;2022-08-19T04:30:03;0.50;;;0.47;;
35304;SDS011;26433;48.034;-1.764;2022-08-19T04:35:07;4.47;;;0.65;;
35304;SDS011;26433;48.034;-1.764;2022-08-19T04:40:19;0.65;;;0.40;;
35304;SDS011;26433;48.034;-1.764;2022-08-19T04:45:42;0.45;;;0.37;;
35304;SDS011;26433;48.034;-1.764;2022-08-19T04:50:46;1.42;;;0.90;;
35304;SDS011;26433;48.034;-1.764;2022-08-19T04:55:50;0.90;;;0.70;;
35304;SDS011;26433;48.034;-1.764;2022-08-19T05:00:55;0.83;;;0.50;;
35304;SDS011;26433;48.034;-1.764;2022-08-19T05:06:03;1.10;;;0.43;;
35304;SDS011;26433;48.034;-1.764;2022-08-19T05:11:12;1.65;;;0.90;;
35304;SDS011;26433;48.034;-1.764;2022-08-19T05:16:19;0.55;;;0.40;;
35304;SDS011;26433;48.034;-1.764;2022-08-19T05:21:24;1.62;;;0.82;;
35304;SDS011;26433;48.034;-1.764;2022-08-19T05:26:47;1.42;;;0.73;;
35304;SDS011;26433;48.034;-1.764;2022-08-19T05:31:54;0.93;;;0.60;;
35304;SDS011;26433;48.034;-1.764;2022-08-19T05:36:58;1.60;;;0.82;;
35304;SDS011;26433;48.034;-1.764;2022-08-19T05:42:04;0.98;;;0.65;;
35304;SDS011;26433;48.034;-1.764;2022-08-19T05:47:12;0.45;;;0.45;;
35304;SDS011;26433;48.034;-1.764;2022-08-19T05:52:16;0.88;;;0.65;;
35304;SDS011;26433;48.034;-1.764;2022-08-19T05:57:27;1.52;;;0.82;;
35304;SDS011;26433;48.034;-1.764;2022-08-19T06:02:32;0.32;;;0.32;;
35304;SDS011;26433;48.034;-1.764;2022-08-19T06:07:37;1.92;;;0.82;;
35304;SDS011;26433;48.034;-1.764;2022-08-19T06:12:42;1.10;;;0.88;;
35304;SDS011;26433;48.034;-1.764;2022-08-19T06:17:47;0.83;;;0.63;;
35304;SDS011;26433;48.034;-1.764;2022-08-19T06:22:51;3.70;;;0.70;;
35304;SDS011;26433;48.034;-1.764;2022-08-19T06:27:55;1.48;;;0.62;;
35304;SDS011;26433;48.034;-1.764;2022-08-19T06:33:17;0.82;;;0.60;;
35304;SDS011;26433;48.034;-1.764;2022-08-19T06:38:20;0.60;;;0.40;;
35304;SDS011;26433;48.034;-1.764;2022-08-19T06:43:25;2.28;;;0.70;;
35304;SDS011;26433;48.034;-1.764;2022-08-19T06:48:31;1.00;;;0.80;;
35304;SDS011;26433;48.034;-1.764;2022-08-19T06:53:46;1.83;;;0.90;;
35304;SDS011;26433;48.034;-1.764;2022-08-19T06:58:54;4.47;;;0.90;;
35304;SDS011;26433;48.034;-1.764;2022-08-19T07:03:59;1.25;;;0.95;;
35304;SDS011;26433;48.034;-1.764;2022-08-19T07:09:05;0.40;;;0.40;;
35304;SDS011;26433;48.034;-1.764;2022-08-19T07:14:12;0.60;;;0.60;;
35304;SDS011;26433;48.034;-1.764;2022-08-19T07:19:23;2.10;;;1.00;;
35304;SDS011;26433;48.034;-1.764;2022-08-19T07:24:29;1.30;;;0.90;;
35304;SDS011;26433;48.034;-1.764;2022-08-19T07:29:34;2.08;;;1.33;;
35304;SDS011;26433;48.034;-1.764;2022-08-19T07:34:40;0.88;;;0.47;;
35304;SDS011;26433;48.034;-1.764;2022-08-19T07:39:44;1.02;;;0.85;;
35304;SDS011;26433;48.034;-1.764;2022-08-19T07:44:47;1.90;;;0.90;;
35304;SDS011;26433;48.034;-1.764;2022-08-19T07:49:53;0.90;;;0.80;;
35304;SDS011;26433;48.034;-1.764;2022-08-19T07:54:56;1.08;;;0.75;;
35304;SDS011;26433;48.034;-1.764;2022-08-19T08:00:03;1.73;;;0.73;;
35304;SDS011;26433;48.034;-1.764;2022-08-19T08:05:13;1.58;;;0.57;;
35304;SDS011;26433;48.034;-1.764;2022-08-19T08:10:36;1.75;;;0.62;;
35304;SDS011;26433;48.034;-1.764;2022-08-19T08:15:42;1.90;;;0.70;;
35304;SDS011;26433;48.034;-1.764;2022-08-19T08:20:48;2.97;;;0.68;;
35304;SDS011;26433;48.034;-1.764;2022-08-19T08:25:52;1.00;;;0.90;;
35304;SDS011;26433;48.034;-1.764;2022-08-19T08:30:58;2.67;;;1.23;;
35304;SDS011;26433;48.034;-1.764;2022-08-19T08:36:04;3.85;;;1.20;;
35304;SDS011;26433;48.034;-1.764;2022-08-19T08:41:09;0.80;;;0.60;;
35304;SDS011;26433;48.034;-1.764;2022-08-19T08:46:24;0.55;;;0.45;;
35304;SDS011;26433;48.034;-1.764;2022-08-19T08:51:36;1.08;;;0.82;;
35304;SDS011;26433;48.034;-1.764;2022-08-19T08:56:44;3.12;;;1.85;;
35304;SDS011;26433;48.034;-1.764;2022-08-19T09:01:52;1.05;;;0.70;;
35304;SDS011;26433;48.034;-1.764;2022-08-19T09:06:58;0.60;;;0.52;;
35304;SDS011;26433;48.034;-1.764;2022-08-19T09:12:38;1.92;;;1.30;;
35304;SDS011;26433;48.034;-1.764;2022-08-19T09:17:48;2.17;;;0.60;;
35304;SDS011;26433;48.034;-1.764;2022-08-19T09:22:53;0.85;;;0.43;;
35304;SDS011;26433;48.034;-1.764;2022-08-19T09:27:56;2.20;;;0.80;;
35304;SDS011;26433;48.034;-1.764;2022-08-19T09:33:06;2.40;;;0.55;;
35304;SDS011;26433;48.034;-1.764;2022-08-19T09:38:12;1.77;;;0.73;;
35304;SDS011;26433;48.034;-1.764;2022-08-19T09:43:25;0.90;;;0.45;;
35304;SDS011;26433;48.034;-1.764;2022-08-19T09:49:28;6.03;;;1.00;;
35304;SDS011;26433;48.034;-1.764;2022-08-19T10:00:18;0.20;;;0.20;;
35304;SDS011;26433;48.034;-1.764;2022-08-19T10:05:27;2.57;;;0.83;;
35304;SDS011;26433;48.034;-1.764;2022-08-19T10:10:51;0.22;;;0.22;;
35304;SDS011;26433;48.034;-1.764;2022-08-19T10:22:17;0.13;;;0.13;;
35304;SDS011;26433;48.034;-1.764;2022-08-19T10:27:26;1.05;;;0.20;;
35304;SDS011;26433;48.034;-1.764;2022-08-19T10:32:32;6.07;;;0.47;;
35304;SDS011;26433;48.034;-1.764;2022-08-19T10:37:38;2.50;;;0.37;;
35304;SDS011;26433;48.034;-1.764;2022-08-19T10:42:58;0.30;;;0.30;;
35304;SDS011;26433;48.034;-1.764;2022-08-19T10:48:02;0.67;;;0.33;;
35304;SDS011;26433;48.034;-1.764;2022-08-19T10:58:11;3.40;;;0.30;;
35304;SDS011;26433;48.034;-1.764;2022-08-19T11:03:16;4.95;;;0.52;;
35304;SDS011;26433;48.034;-1.764;2022-08-19T11:08:21;0.30;;;0.30;;
35304;SDS011;26433;48.034;-1.764;2022-08-19T11:13:26;0.30;;;0.30;;
35304;SDS011;26433;48.034;-1.764;2022-08-19T11:18:30;0.17;;;0.17;;
35304;SDS011;26433;48.034;-1.764;2022-08-19T11:23:35;0.47;;;0.20;;
35304;SDS011;26433;48.034;-1.764;2022-08-19T11:28:39;1.25;;;0.30;;
35304;SDS011;26433;48.034;-1.764;2022-08-19T11:33:43;0.43;;;0.37;;
35304;SDS011;26433;48.034;-1.764;2022-08-19T11:38:50;1.35;;;0.50;;
35304;SDS011;26433;48.034;-1.764;2022-08-19T11:43:54;0.32;;;0.22;;
35304;SDS011;26433;48.034;-1.764;2022-08-19T11:48:59;0.28;;;0.28;;
35304;SDS011;26433;48.034;-1.764;2022-08-19T11:54:06;0.75;;;0.40;;
35304;SDS011;26433;48.034;-1.764;2022-08-19T11:59:10;0.22;;;0.17;;
35304;SDS011;26433;48.034;-1.764;2022-08-19T12:04:15;0.10;;;0.10;;
35304;SDS011;26433;48.034;-1.764;2022-08-19T12:09:22;0.10;;;0.10;;
35304;SDS011;26433;48.034;-1.764;2022-08-19T12:14:26;0.10;;;0.05;;
35304;SDS011;26433;48.034;-1.764;2022-08-19T12:19:31;0.17;;;0.10;;
35304;SDS011;26433;48.034;-1.764;2022-08-19T12:24:37;0.20;;;0.20;;
35304;SDS011;26433;48.034;-1.764;2022-08-19T12:29:40;1.27;;;0.40;;
35304;SDS011;26433;48.034;-1.764;2022-08-19T12:34:44;0.50;;;0.23;;
35304;SDS011;26433;48.034;-1.764;2022-08-19T12:49:57;0.05;;;0.05;;
35304;SDS011;26433;48.034;-1.764;2022-08-19T12:55:08;0.17;;;0.10;;
35304;SDS011;26433;48.034;-1.764;2022-08-19T13:00:13;0.08;;;0.08;;
35304;SDS011;26433;48.034;-1.764;2022-08-19T13:05:19;0.20;;;0.20;;
35304;SDS011;26433;48.034;-1.764;2022-08-19T13:10:26;0.30;;;0.30;;
35304;SDS011;26433;48.034;-1.764;2022-08-19T13:15:32;0.30;;;0.15;;
35304;SDS011;26433;48.034;-1.764;2022-08-19T13:20:37;0.20;;;0.15;;
35304;SDS011;26433;48.034;-1.764;2022-08-19T13:25:43;1.98;;;0.30;;
35304;SDS011;26433;48.034;-1.764;2022-08-19T13:30:48;0.20;;;0.20;;
35304;SDS011;26433;48.034;-1.764;2022-08-19T13:36:10;0.17;;;0.17;;
35304;SDS011;26433;48.034;-1.764;2022-08-19T13:41:14;0.73;;;0.10;;
35304;SDS011;26433;48.034;-1.764;2022-08-19T13:46:20;0.10;;;0.10;;
35304;SDS011;26433;48.034;-1.764;2022-08-19T13:51:24;0.90;;;0.30;;
35304;SDS011;26433;48.034;-1.764;2022-08-19T13:56:29;0.07;;;0.07;;
35304;SDS011;26433;48.034;-1.764;2022-08-19T14:01:33;0.08;;;0.08;;
35304;SDS011;26433;48.034;-1.764;2022-08-19T14:06:36;0.23;;;0.23;;
35304;SDS011;26433;48.034;-1.764;2022-08-19T14:11:41;0.50;;;0.20;;
35304;SDS011;26433;48.034;-1.764;2022-08-19T14:16:47;0.20;;;0.20;;
35304;SDS011;26433;48.034;-1.764;2022-08-19T14:21:51;0.47;;;0.28;;
35304;SDS011;26433;48.034;-1.764;2022-08-19T14:26:56;0.07;;;0.07;;
35304;SDS011;26433;48.034;-1.764;2022-08-19T14:32:02;0.30;;;0.20;;
35304;SDS011;26433;48.034;-1.764;2022-08-19T14:37:06;0.20;;;0.00;;
35304;SDS011;26433;48.034;-1.764;2022-08-19T14:42:16;0.20;;;0.20;;
35304;SDS011;26433;48.034;-1.764;2022-08-19T14:47:20;0.17;;;0.17;;
35304;SDS011;26433;48.034;-1.764;2022-08-19T14:52:23;0.20;;;0.20;;
35304;SDS011;26433;48.034;-1.764;2022-08-19T14:57:29;1.30;;;0.70;;
35304;SDS011;26433;48.034;-1.764;2022-08-19T15:02:32;0.10;;;0.10;;
35304;SDS011;26433;48.034;-1.764;2022-08-19T15:07:36;0.00;;;0.00;;
35304;SDS011;26433;48.034;-1.764;2022-08-19T15:12:41;0.10;;;0.00;;
35304;SDS011;26433;48.034;-1.764;2022-08-19T15:17:51;0.57;;;0.10;;
35304;SDS011;26433;48.034;-1.764;2022-08-19T15:22:56;0.00;;;0.00;;
35304;SDS011;26433;48.034;-1.764;2022-08-19T15:28:01;2.62;;;0.20;;
35304;SDS011;26433;48.034;-1.764;2022-08-19T15:33:06;0.10;;;0.10;;
35304;SDS011;26433;48.034;-1.764;2022-08-19T15:38:10;0.00;;;0.00;;
35304;SDS011;26433;48.034;-1.764;2022-08-19T15:43:16;0.10;;;0.10;;
35304;SDS011;26433;48.034;-1.764;2022-08-19T15:48:22;1.45;;;0.20;;
35304;SDS011;26433;48.034;-1.764;2022-08-19T15:53:25;0.20;;;0.20;;
35304;SDS011;26433;48.034;-1.764;2022-08-19T15:58:30;0.20;;;0.10;;
35304;SDS011;26433;48.034;-1.764;2022-08-19T16:03:52;0.10;;;0.10;;
35304;SDS011;26433;48.034;-1.764;2022-08-19T16:09:16;6.05;;;1.12;;
35304;SDS011;26433;48.034;-1.764;2022-08-19T16:14:29;1.05;;;0.37;;
35304;SDS011;26433;48.034;-1.764;2022-08-19T16:19:35;0.75;;;0.30;;
35304;SDS011;26433;48.034;-1.764;2022-08-19T16:24:39;3.10;;;0.10;;
35304;SDS011;26433;48.034;-1.764;2022-08-19T16:29:44;0.32;;;0.25;;
35304;SDS011;26433;48.034;-1.764;2022-08-19T16:34:48;0.68;;;0.50;;
35304;SDS011;26433;48.034;-1.764;2022-08-19T16:39:52;0.30;;;0.20;;
35304;SDS011;26433;48.034;-1.764;2022-08-19T16:44:57;0.82;;;0.50;;
35304;SDS011;26433;48.034;-1.764;2022-08-19T16:50:02;0.57;;;0.47;;
35304;SDS011;26433;48.034;-1.764;2022-08-19T16:55:08;0.52;;;0.30;;
35304;SDS011;26433;48.034;-1.764;2022-08-19T17:00:13;1.57;;;0.77;;
35304;SDS011;26433;48.034;-1.764;2022-08-19T17:05:17;2.28;;;0.62;;
35304;SDS011;26433;48.034;-1.764;2022-08-19T17:10:21;0.50;;;0.50;;
35304;SDS011;26433;48.034;-1.764;2022-08-19T17:15:26;0.30;;;0.30;;
35304;SDS011;26433;48.034;-1.764;2022-08-19T17:20:30;4.20;;;0.30;;
35304;SDS011;26433;48.034;-1.764;2022-08-19T17:25:34;3.35;;;0.32;;
35304;SDS011;26433;48.034;-1.764;2022-08-19T17:30:40;1.73;;;0.80;;
35304;SDS011;26433;48.034;-1.764;2022-08-19T17:35:45;1.48;;;0.40;;
35304;SDS011;26433;48.034;-1.764;2022-08-19T17:40:49;1.48;;;0.32;;
35304;SDS011;26433;48.034;-1.764;2022-08-19T17:45:54;2.70;;;0.65;;
35304;SDS011;26433;48.034;-1.764;2022-08-19T17:50:58;2.15;;;0.77;;
35304;SDS011;26433;48.034;-1.764;2022-08-19T17:56:02;8.40;;;1.00;;
35304;SDS011;26433;48.034;-1.764;2022-08-19T18:01:08;3.17;;;0.50;;
35304;SDS011;26433;48.034;-1.764;2022-08-19T18:06:13;1.45;;;0.43;;
35304;SDS011;26433;48.034;-1.764;2022-08-19T18:11:18;9.18;;;2.58;;
35304;SDS011;26433;48.034;-1.764;2022-08-19T18:16:23;12.33;;;3.83;;
35304;SDS011;26433;48.034;-1.764;2022-08-19T18:21:27;6.45;;;2.25;;
35304;SDS011;26433;48.034;-1.764;2022-08-19T18:26:32;4.68;;;1.60;;
35304;SDS011;26433;48.034;-1.764;2022-08-19T18:31:37;6.40;;;1.13;;
35304;SDS011;26433;48.034;-1.764;2022-08-19T18:36:41;1.17;;;0.30;;
35304;SDS011;26433;48.034;-1.764;2022-08-19T18:41:54;1.58;;;0.77;;
35304;SDS011;26433;48.034;-1.764;2022-08-19T18:47:17;1.08;;;0.70;;
35304;SDS011;26433;48.034;-1.764;2022-08-19T18:52:38;5.47;;;1.02;;
35304;SDS011;26433;48.034;-1.764;2022-08-19T18:57:42;0.70;;;0.57;;
35304;SDS011;26433;48.034;-1.764;2022-08-19T19:02:47;1.07;;;0.97;;
35304;SDS011;26433;48.034;-1.764;2022-08-19T19:07:50;0.40;;;0.40;;
35304;SDS011;26433;48.034;-1.764;2022-08-19T19:12:55;1.23;;;0.20;;
35304;SDS011;26433;48.034;-1.764;2022-08-19T19:18:00;0.63;;;0.43;;
35304;SDS011;26433;48.034;-1.764;2022-08-19T19:23:03;1.05;;;0.30;;
35304;SDS011;26433;48.034;-1.764;2022-08-19T19:28:07;2.10;;;0.77;;
35304;SDS011;26433;48.034;-1.764;2022-08-19T19:33:17;0.40;;;0.35;;
35304;SDS011;26433;48.034;-1.764;2022-08-19T19:38:21;0.40;;;0.32;;
35304;SDS011;26433;48.034;-1.764;2022-08-19T19:43:25;0.70;;;0.70;;
35304;SDS011;26433;48.034;-1.764;2022-08-19T19:48:36;0.50;;;0.40;;
35304;SDS011;26433;48.034;-1.764;2022-08-19T19:53:40;0.50;;;0.45;;
35304;SDS011;26433;48.034;-1.764;2022-08-19T19:58:44;4.47;;;0.70;;
35304;SDS011;26433;48.034;-1.764;2022-08-19T20:03:52;2.10;;;0.60;;
35304;SDS011;26433;48.034;-1.764;2022-08-19T20:08:56;2.35;;;0.70;;
35304;SDS011;26433;48.034;-1.764;2022-08-19T20:14:21;0.50;;;0.40;;
35304;SDS011;26433;48.034;-1.764;2022-08-19T20:19:29;0.60;;;0.50;;
35304;SDS011;26433;48.034;-1.764;2022-08-19T20:24:34;0.35;;;0.35;;
35304;SDS011;26433;48.034;-1.764;2022-08-19T20:29:39;2.20;;;0.50;;
35304;SDS011;26433;48.034;-1.764;2022-08-19T20:34:47;0.93;;;0.65;;
35304;SDS011;26433;48.034;-1.764;2022-08-19T20:39:51;0.60;;;0.55;;
35304;SDS011;26433;48.034;-1.764;2022-08-19T20:44:54;0.80;;;0.60;;
35304;SDS011;26433;48.034;-1.764;2022-08-19T20:50:00;2.13;;;0.77;;
35304;SDS011;26433;48.034;-1.764;2022-08-19T20:55:04;1.70;;;0.50;;
35304;SDS011;26433;48.034;-1.764;2022-08-19T21:00:08;2.17;;;0.32;;
35304;SDS011;26433;48.034;-1.764;2022-08-19T21:05:14;0.68;;;0.45;;
35304;SDS011;26433;48.034;-1.764;2022-08-19T21:10:18;0.88;;;0.35;;
35304;SDS011;26433;48.034;-1.764;2022-08-19T21:15:22;0.60;;;0.50;;
35304;SDS011;26433;48.034;-1.764;2022-08-19T21:20:27;2.42;;;0.73;;
35304;SDS011;26433;48.034;-1.764;2022-08-19T21:25:31;0.60;;;0.60;;
35304;SDS011;26433;48.034;-1.764;2022-08-19T21:30:35;1.63;;;0.43;;
35304;SDS011;26433;48.034;-1.764;2022-08-19T21:35:40;6.87;;;1.20;;
35304;SDS011;26433;48.034;-1.764;2022-08-19T21:40:43;3.85;;;0.70;;
35304;SDS011;26433;48.034;-1.764;2022-08-19T21:45:47;0.33;;;0.33;;
35304;SDS011;26433;48.034;-1.764;2022-08-19T21:50:53;4.25;;;0.57;;
35304;SDS011;26433;48.034;-1.764;2022-08-19T21:55:56;1.45;;;0.45;;
35304;SDS011;26433;48.034;-1.764;2022-08-19T22:01:00;0.80;;;0.43;;
35304;SDS011;26433;48.034;-1.764;2022-08-19T22:06:08;0.45;;;0.35;;
35304;SDS011;26433;48.034;-1.764;2022-08-19T22:11:12;2.33;;;0.50;;
35304;SDS011;26433;48.034;-1.764;2022-08-19T22:16:15;1.92;;;0.40;;
35304;SDS011;26433;48.034;-1.764;2022-08-19T22:21:20;1.13;;;0.60;;
35304;SDS011;26433;48.034;-1.764;2022-08-19T22:26:41;0.40;;;0.40;;
35304;SDS011;26433;48.034;-1.764;2022-08-19T22:31:44;0.95;;;0.52;;
35304;SDS011;26433;48.034;-1.764;2022-08-19T22:37:00;2.43;;;0.30;;
35304;SDS011;26433;48.034;-1.764;2022-08-19T22:42:03;0.57;;;0.37;;
35304;SDS011;26433;48.034;-1.764;2022-08-19T22:47:07;0.30;;;0.30;;
35304;SDS011;26433;48.034;-1.764;2022-08-19T22:52:14;0.55;;;0.32;;
35304;SDS011;26433;48.034;-1.764;2022-08-19T22:57:21;0.57;;;0.40;;
35304;SDS011;26433;48.034;-1.764;2022-08-19T23:02:27;2.33;;;0.73;;
35304;SDS011;26433;48.034;-1.764;2022-08-19T23:07:34;2.90;;;0.60;;
35304;SDS011;26433;48.034;-1.764;2022-08-19T23:12:40;0.75;;;0.55;;
35304;SDS011;26433;48.034;-1.764;2022-08-19T23:17:45;8.77;;;1.35;;
35304;SDS011;26433;48.034;-1.764;2022-08-19T23:22:50;0.60;;;0.47;;
35304;SDS011;26433;48.034;-1.764;2022-08-19T23:27:54;2.53;;;0.57;;
35304;SDS011;26433;48.034;-1.764;2022-08-19T23:33:16;1.58;;;0.45;;
35304;SDS011;26433;48.034;-1.764;2022-08-19T23:38:27;2.62;;;1.00;;
35304;SDS011;26433;48.034;-1.764;2022-08-19T23:43:32;1.02;;;0.60;;
35304;SDS011;26433;48.034;-1.764;2022-08-19T23:48:37;0.50;;;0.47;;
35304;SDS011;26433;48.034;-1.764;2022-08-19T23:53:42;1.40;;;0.70;;
35304;SDS011;26433;48.034;-1.764;2022-08-19T23:58:46;4.22;;;0.60;;
